sensor_id;sensor_type;location;lat;lon;timestamp;temperature;humidity
26589;DHT22;14235;48.532;8.722;2023-03-03T00:00:43;2.00;99.90
26589;DHT22;14235;48.532;8.722;2023-03-03T00:03:10;2.00;99.90
26589;DHT22;14235;48.532;8.722;2023-03-03T00:05:37;2.00;99.90
26589;DHT22;14235;48.532;8.722;2023-03-03T00:08:03;2.00;99.90
26589;DHT22;14235;48.532;8.722;2023-03-03T00:10:29;2.00;99.90
26589;DHT22;14235;48.532;8.722;2023-03-03T00:12:55;2.00;99.90
26589;DHT22;14235;48.532;8.722;2023-03-03T00:15:23;2.00;99.90
26589;DHT22;14235;48.532;8.722;2023-03-03T00:17:50;2.00;99.90
26589;DHT22;14235;48.532;8.722;2023-03-03T00:20:30;1.90;99.90
26589;DHT22;14235;48.532;8.722;2023-03-03T00:23:03;1.90;99.90
26589;DHT22;14235;48.532;8.722;2023-03-03T00:25:33;2.00;99.90
26589;DHT22;14235;48.532;8.722;2023-03-03T00:28:09;2.00;99.90
26589;DHT22;14235;48.532;8.722;2023-03-03T00:30:40;2.00;99.90
26589;DHT22;14235;48.532;8.722;2023-03-03T00:35:52;2.00;99.90
26589;DHT22;14235;48.532;8.722;2023-03-03T00:38:18;2.20;99.90
26589;DHT22;14235;48.532;8.722;2023-03-03T00:40:45;2.00;99.90
26589;DHT22;14235;48.532;8.722;2023-03-03T00:43:22;1.80;99.90
26589;DHT22;14235;48.532;8.722;2023-03-03T00:45:53;1.80;99.90
26589;DHT22;14235;48.532;8.722;2023-03-03T00:48:28;2.00;99.90
26589;DHT22;14235;48.532;8.722;2023-03-03T01:00:57;1.90;99.90
26589;DHT22;14235;48.532;8.722;2023-03-03T01:05:52;2.40;99.90
26589;DHT22;14235;48.532;8.722;2023-03-03T01:08:18;2.00;99.90
26589;DHT22;14235;48.532;8.722;2023-03-03T01:10:55;2.00;99.90
26589;DHT22;14235;48.532;8.722;2023-03-03T01:13:27;1.90;99.90
26589;DHT22;14235;48.532;8.722;2023-03-03T01:15:54;2.00;99.90
26589;DHT22;14235;48.532;8.722;2023-03-03T01:18:20;1.70;99.90
26589;DHT22;14235;48.532;8.722;2023-03-03T01:20:46;1.80;99.90
26589;DHT22;14235;48.532;8.722;2023-03-03T01:23:12;1.90;99.90
26589;DHT22;14235;48.532;8.722;2023-03-03T01:25:37;1.60;99.90
26589;DHT22;14235;48.532;8.722;2023-03-03T01:28:03;1.90;99.90
26589;DHT22;14235;48.532;8.722;2023-03-03T01:30:29;1.90;99.90
26589;DHT22;14235;48.532;8.722;2023-03-03T01:32:55;1.90;99.90
26589;DHT22;14235;48.532;8.722;2023-03-03T01:35:21;1.80;99.90
26589;DHT22;14235;48.532;8.722;2023-03-03T01:37:46;1.90;99.90
26589;DHT22;14235;48.532;8.722;2023-03-03T01:40:18;1.60;99.90
26589;DHT22;14235;48.532;8.722;2023-03-03T01:42:44;1.80;99.90
26589;DHT22;14235;48.532;8.722;2023-03-03T01:47:44;1.60;99.90
26589;DHT22;14235;48.532;8.722;2023-03-03T01:50:14;1.70;99.90
26589;DHT22;14235;48.532;8.722;2023-03-03T01:52:44;1.60;99.90
26589;DHT22;14235;48.532;8.722;2023-03-03T01:55:21;1.60;99.90
26589;DHT22;14235;48.532;8.722;2023-03-03T01:57:56;1.50;99.90
26589;DHT22;14235;48.532;8.722;2023-03-03T02:00:23;1.50;99.90
26589;DHT22;14235;48.532;8.722;2023-03-03T02:02:49;1.50;99.90
26589;DHT22;14235;48.532;8.722;2023-03-03T02:05:16;1.50;99.90
26589;DHT22;14235;48.532;8.722;2023-03-03T02:07:42;1.60;99.90
26589;DHT22;14235;48.532;8.722;2023-03-03T02:10:15;1.40;99.90
26589;DHT22;14235;48.532;8.722;2023-03-03T02:12:53;1.50;99.90
26589;DHT22;14235;48.532;8.722;2023-03-03T02:15:29;1.30;99.90
26589;DHT22;14235;48.532;8.722;2023-03-03T02:17:59;1.30;99.90
26589;DHT22;14235;48.532;8.722;2023-03-03T02:21:02;1.40;99.90
26589;DHT22;14235;48.532;8.722;2023-03-03T02:23:48;1.30;99.90
26589;DHT22;14235;48.532;8.722;2023-03-03T02:26:16;1.50;99.90
26589;DHT22;14235;48.532;8.722;2023-03-03T02:28:43;1.30;99.90
26589;DHT22;14235;48.532;8.722;2023-03-03T02:31:12;1.30;99.90
26589;DHT22;14235;48.532;8.722;2023-03-03T02:33:43;1.30;99.90
26589;DHT22;14235;48.532;8.722;2023-03-03T02:36:13;1.30;99.90
26589;DHT22;14235;48.532;8.722;2023-03-03T02:41:41;1.40;99.90
26589;DHT22;14235;48.532;8.722;2023-03-03T02:44:11;1.40;99.90
26589;DHT22;14235;48.532;8.722;2023-03-03T02:46:42;1.30;99.90
26589;DHT22;14235;48.532;8.722;2023-03-03T02:49:10;1.10;99.90
26589;DHT22;14235;48.532;8.722;2023-03-03T02:51:36;1.20;99.90
26589;DHT22;14235;48.532;8.722;2023-03-03T02:54:02;1.10;99.90
26589;DHT22;14235;48.532;8.722;2023-03-03T02:56:29;1.00;99.90
26589;DHT22;14235;48.532;8.722;2023-03-03T02:58:54;0.90;99.90
26589;DHT22;14235;48.532;8.722;2023-03-03T03:01:20;0.90;99.90
26589;DHT22;14235;48.532;8.722;2023-03-03T03:03:46;0.80;99.90
26589;DHT22;14235;48.532;8.722;2023-03-03T03:06:12;0.90;99.90
26589;DHT22;14235;48.532;8.722;2023-03-03T03:08:38;1.00;99.90
26589;DHT22;14235;48.532;8.722;2023-03-03T03:11:03;1.00;99.90
26589;DHT22;14235;48.532;8.722;2023-03-03T03:13:31;1.10;99.90
26589;DHT22;14235;48.532;8.722;2023-03-03T03:15:57;1.00;99.90
26589;DHT22;14235;48.532;8.722;2023-03-03T03:18:23;0.90;99.90
26589;DHT22;14235;48.532;8.722;2023-03-03T03:20:49;0.90;99.90
26589;DHT22;14235;48.532;8.722;2023-03-03T03:23:15;0.80;99.90
26589;DHT22;14235;48.532;8.722;2023-03-03T03:25:41;0.90;99.90
26589;DHT22;14235;48.532;8.722;2023-03-03T03:28:14;0.90;99.90
26589;DHT22;14235;48.532;8.722;2023-03-03T03:30:40;0.90;99.90
26589;DHT22;14235;48.532;8.722;2023-03-03T03:33:06;1.00;99.90
26589;DHT22;14235;48.532;8.722;2023-03-03T03:35:33;0.90;99.90
26589;DHT22;14235;48.532;8.722;2023-03-03T03:37:59;0.90;99.90
26589;DHT22;14235;48.532;8.722;2023-03-03T03:40:25;0.90;99.90
26589;DHT22;14235;48.532;8.722;2023-03-03T03:42:52;1.00;99.90
26589;DHT22;14235;48.532;8.722;2023-03-03T03:45:18;1.00;99.90
26589;DHT22;14235;48.532;8.722;2023-03-03T03:47:44;1.10;99.90
26589;DHT22;14235;48.532;8.722;2023-03-03T03:50:10;1.00;99.90
26589;DHT22;14235;48.532;8.722;2023-03-03T03:52:36;1.10;99.90
26589;DHT22;14235;48.532;8.722;2023-03-03T03:55:01;1.00;99.90
26589;DHT22;14235;48.532;8.722;2023-03-03T03:57:27;1.00;99.90
26589;DHT22;14235;48.532;8.722;2023-03-03T03:59:52;1.00;99.90
26589;DHT22;14235;48.532;8.722;2023-03-03T04:02:18;1.10;99.90
26589;DHT22;14235;48.532;8.722;2023-03-03T04:04:45;1.00;99.90
26589;DHT22;14235;48.532;8.722;2023-03-03T04:07:10;1.00;99.90
26589;DHT22;14235;48.532;8.722;2023-03-03T04:09:36;1.10;99.90
26589;DHT22;14235;48.532;8.722;2023-03-03T04:12:02;1.00;99.90
26589;DHT22;14235;48.532;8.722;2023-03-03T04:14:28;1.00;99.90
26589;DHT22;14235;48.532;8.722;2023-03-03T04:16:53;1.00;99.90
26589;DHT22;14235;48.532;8.722;2023-03-03T04:19:19;1.20;99.90
26589;DHT22;14235;48.532;8.722;2023-03-03T04:21:44;1.10;99.90
26589;DHT22;14235;48.532;8.722;2023-03-03T04:24:10;1.10;99.90
26589;DHT22;14235;48.532;8.722;2023-03-03T04:26:35;1.10;99.90
26589;DHT22;14235;48.532;8.722;2023-03-03T04:29:01;1.10;99.90
26589;DHT22;14235;48.532;8.722;2023-03-03T04:31:27;1.10;99.90
26589;DHT22;14235;48.532;8.722;2023-03-03T04:33:52;1.00;99.90
26589;DHT22;14235;48.532;8.722;2023-03-03T04:36:19;1.20;99.90
26589;DHT22;14235;48.532;8.722;2023-03-03T04:38:45;1.10;99.90
26589;DHT22;14235;48.532;8.722;2023-03-03T04:41:10;1.10;99.90
26589;DHT22;14235;48.532;8.722;2023-03-03T04:43:36;1.20;99.90
26589;DHT22;14235;48.532;8.722;2023-03-03T04:46:02;1.10;99.90
26589;DHT22;14235;48.532;8.722;2023-03-03T04:48:27;1.60;99.90
26589;DHT22;14235;48.532;8.722;2023-03-03T04:50:53;1.10;99.90
26589;DHT22;14235;48.532;8.722;2023-03-03T04:53:19;1.20;99.90
26589;DHT22;14235;48.532;8.722;2023-03-03T04:55:44;1.10;99.90
26589;DHT22;14235;48.532;8.722;2023-03-03T04:58:10;1.20;99.90
26589;DHT22;14235;48.532;8.722;2023-03-03T05:00:36;1.00;99.90
26589;DHT22;14235;48.532;8.722;2023-03-03T05:03:02;1.30;99.90
26589;DHT22;14235;48.532;8.722;2023-03-03T05:05:28;2.00;99.90
26589;DHT22;14235;48.532;8.722;2023-03-03T05:07:53;1.10;99.90
26589;DHT22;14235;48.532;8.722;2023-03-03T05:10:19;1.00;99.90
26589;DHT22;14235;48.532;8.722;2023-03-03T05:12:45;1.00;99.90
26589;DHT22;14235;48.532;8.722;2023-03-03T05:15:11;1.10;99.90
26589;DHT22;14235;48.532;8.722;2023-03-03T05:17:37;1.10;99.90
26589;DHT22;14235;48.532;8.722;2023-03-03T05:20:04;1.20;99.90
26589;DHT22;14235;48.532;8.722;2023-03-03T05:22:30;1.30;99.90
26589;DHT22;14235;48.532;8.722;2023-03-03T05:24:55;1.10;99.90
26589;DHT22;14235;48.532;8.722;2023-03-03T05:27:23;1.20;99.90
26589;DHT22;14235;48.532;8.722;2023-03-03T05:29:48;1.20;99.90
26589;DHT22;14235;48.532;8.722;2023-03-03T05:32:14;1.00;99.90
26589;DHT22;14235;48.532;8.722;2023-03-03T05:34:40;0.90;99.90
26589;DHT22;14235;48.532;8.722;2023-03-03T05:37:06;1.10;99.90
26589;DHT22;14235;48.532;8.722;2023-03-03T05:39:32;1.20;99.90
26589;DHT22;14235;48.532;8.722;2023-03-03T05:41:58;1.10;99.90
26589;DHT22;14235;48.532;8.722;2023-03-03T05:44:25;1.20;99.90
26589;DHT22;14235;48.532;8.722;2023-03-03T05:46:51;1.20;99.90
26589;DHT22;14235;48.532;8.722;2023-03-03T05:49:16;1.50;99.90
26589;DHT22;14235;48.532;8.722;2023-03-03T05:51:42;1.20;99.90
26589;DHT22;14235;48.532;8.722;2023-03-03T05:54:08;1.30;99.90
26589;DHT22;14235;48.532;8.722;2023-03-03T05:56:33;1.30;99.90
26589;DHT22;14235;48.532;8.722;2023-03-03T05:58:59;1.40;99.90
26589;DHT22;14235;48.532;8.722;2023-03-03T06:01:25;1.50;99.90
26589;DHT22;14235;48.532;8.722;2023-03-03T06:03:51;1.30;99.90
26589;DHT22;14235;48.532;8.722;2023-03-03T06:06:17;0.90;99.90
26589;DHT22;14235;48.532;8.722;2023-03-03T06:08:44;1.20;99.90
26589;DHT22;14235;48.532;8.722;2023-03-03T06:11:10;1.20;99.90
26589;DHT22;14235;48.532;8.722;2023-03-03T06:13:36;1.80;99.90
26589;DHT22;14235;48.532;8.722;2023-03-03T06:16:01;1.20;99.90
26589;DHT22;14235;48.532;8.722;2023-03-03T06:18:27;1.10;99.90
26589;DHT22;14235;48.532;8.722;2023-03-03T06:20:53;1.30;99.90
26589;DHT22;14235;48.532;8.722;2023-03-03T06:23:19;1.30;99.90
26589;DHT22;14235;48.532;8.722;2023-03-03T06:25:45;1.30;99.90
26589;DHT22;14235;48.532;8.722;2023-03-03T06:28:12;1.40;99.90
26589;DHT22;14235;48.532;8.722;2023-03-03T06:30:38;1.30;99.90
26589;DHT22;14235;48.532;8.722;2023-03-03T06:33:04;1.40;99.90
26589;DHT22;14235;48.532;8.722;2023-03-03T06:35:29;1.40;99.90
26589;DHT22;14235;48.532;8.722;2023-03-03T06:37:55;1.40;99.90
26589;DHT22;14235;48.532;8.722;2023-03-03T06:40:21;1.40;99.90
26589;DHT22;14235;48.532;8.722;2023-03-03T06:42:46;1.40;99.90
26589;DHT22;14235;48.532;8.722;2023-03-03T06:45:13;1.40;99.90
26589;DHT22;14235;48.532;8.722;2023-03-03T06:47:39;1.40;99.90
26589;DHT22;14235;48.532;8.722;2023-03-03T07:02:23;1.30;99.90
26589;DHT22;14235;48.532;8.722;2023-03-03T07:09:46;1.60;99.90
26589;DHT22;14235;48.532;8.722;2023-03-03T07:12:18;1.60;99.90
26589;DHT22;14235;48.532;8.722;2023-03-03T07:14:52;1.70;99.90
26589;DHT22;14235;48.532;8.722;2023-03-03T07:19:50;1.70;99.90
26589;DHT22;14235;48.532;8.722;2023-03-03T07:22:22;1.60;99.90
26589;DHT22;14235;48.532;8.722;2023-03-03T07:24:51;1.60;99.90
26589;DHT22;14235;48.532;8.722;2023-03-03T07:27:25;1.60;99.90
26589;DHT22;14235;48.532;8.722;2023-03-03T07:30:12;1.70;99.90
26589;DHT22;14235;48.532;8.722;2023-03-03T07:32:42;1.80;99.90
26589;DHT22;14235;48.532;8.722;2023-03-03T07:35:39;1.60;99.90
26589;DHT22;14235;48.532;8.722;2023-03-03T07:41:00;1.90;99.90
26589;DHT22;14235;48.532;8.722;2023-03-03T07:43:37;1.80;99.90
26589;DHT22;14235;48.532;8.722;2023-03-03T07:48:37;1.90;99.90
26589;DHT22;14235;48.532;8.722;2023-03-03T07:51:21;1.90;99.90
26589;DHT22;14235;48.532;8.722;2023-03-03T07:53:47;2.10;99.90
26589;DHT22;14235;48.532;8.722;2023-03-03T08:29:16;2.50;99.90
26589;DHT22;14235;48.532;8.722;2023-03-03T08:31:41;2.50;99.90
26589;DHT22;14235;48.532;8.722;2023-03-03T08:34:07;2.80;99.90
26589;DHT22;14235;48.532;8.722;2023-03-03T08:36:32;2.60;99.90
26589;DHT22;14235;48.532;8.722;2023-03-03T08:38:58;2.60;99.90
26589;DHT22;14235;48.532;8.722;2023-03-03T08:41:23;2.70;99.90
26589;DHT22;14235;48.532;8.722;2023-03-03T08:43:49;2.70;99.90
26589;DHT22;14235;48.532;8.722;2023-03-03T08:46:15;2.70;99.90
26589;DHT22;14235;48.532;8.722;2023-03-03T09:03:23;4.40;99.90
26589;DHT22;14235;48.532;8.722;2023-03-03T09:05:49;3.30;99.90
26589;DHT22;14235;48.532;8.722;2023-03-03T09:08:14;3.10;99.90
26589;DHT22;14235;48.532;8.722;2023-03-03T09:10:40;3.30;99.90
26589;DHT22;14235;48.532;8.722;2023-03-03T09:13:16;3.30;99.90
26589;DHT22;14235;48.532;8.722;2023-03-03T09:15:44;3.40;99.90
26589;DHT22;14235;48.532;8.722;2023-03-03T09:18:21;3.30;99.90
26589;DHT22;14235;48.532;8.722;2023-03-03T09:20:54;3.40;99.90
26589;DHT22;14235;48.532;8.722;2023-03-03T09:25:51;3.70;99.90
26589;DHT22;14235;48.532;8.722;2023-03-03T09:30:49;3.70;99.90
26589;DHT22;14235;48.532;8.722;2023-03-03T09:33:39;3.70;99.90
26589;DHT22;14235;48.532;8.722;2023-03-03T09:36:25;3.70;99.90
26589;DHT22;14235;48.532;8.722;2023-03-03T09:38:51;3.90;99.90
26589;DHT22;14235;48.532;8.722;2023-03-03T09:41:31;3.90;99.90
26589;DHT22;14235;48.532;8.722;2023-03-03T09:49:55;4.20;99.90
26589;DHT22;14235;48.532;8.722;2023-03-03T10:08:45;4.70;99.90
26589;DHT22;14235;48.532;8.722;2023-03-03T10:17:03;4.90;99.90
26589;DHT22;14235;48.532;8.722;2023-03-03T10:19:37;4.80;99.90
26589;DHT22;14235;48.532;8.722;2023-03-03T10:22:23;4.80;99.90
26589;DHT22;14235;48.532;8.722;2023-03-03T10:25:01;5.00;99.90
26589;DHT22;14235;48.532;8.722;2023-03-03T10:30:24;5.20;99.90
26589;DHT22;14235;48.532;8.722;2023-03-03T10:35:39;5.40;99.90
26589;DHT22;14235;48.532;8.722;2023-03-03T10:38:36;5.30;99.90
26589;DHT22;14235;48.532;8.722;2023-03-03T10:49:18;5.50;99.90
26589;DHT22;14235;48.532;8.722;2023-03-03T10:51:58;4.30;99.90
26589;DHT22;14235;48.532;8.722;2023-03-03T10:54:47;5.70;99.90
26589;DHT22;14235;48.532;8.722;2023-03-03T11:00:26;5.90;99.90
26589;DHT22;14235;48.532;8.722;2023-03-03T11:06:10;6.10;99.90
26589;DHT22;14235;48.532;8.722;2023-03-03T11:09:00;6.20;99.90
26589;DHT22;14235;48.532;8.722;2023-03-03T11:14:29;6.40;99.90
26589;DHT22;14235;48.532;8.722;2023-03-03T11:25:16;6.50;99.90
26589;DHT22;14235;48.532;8.722;2023-03-03T11:33:36;6.70;99.90
26589;DHT22;14235;48.532;8.722;2023-03-03T11:36:20;6.50;99.90
26589;DHT22;14235;48.532;8.722;2023-03-03T11:41:41;6.80;99.90
26589;DHT22;14235;48.532;8.722;2023-03-03T11:44:23;7.00;99.90
26589;DHT22;14235;48.532;8.722;2023-03-03T11:46:59;7.10;99.90
26589;DHT22;14235;48.532;8.722;2023-03-03T11:49:42;7.20;99.90
26589;DHT22;14235;48.532;8.722;2023-03-03T11:55:38;7.30;99.90
26589;DHT22;14235;48.532;8.722;2023-03-03T11:58:05;7.50;99.90
26589;DHT22;14235;48.532;8.722;2023-03-03T12:00:40;7.60;99.90
26589;DHT22;14235;48.532;8.722;2023-03-03T12:03:12;7.70;99.90
26589;DHT22;14235;48.532;8.722;2023-03-03T12:14:27;8.00;99.90
26589;DHT22;14235;48.532;8.722;2023-03-03T12:17:00;8.20;99.90
26589;DHT22;14235;48.532;8.722;2023-03-03T12:22:30;8.10;99.90
26589;DHT22;14235;48.532;8.722;2023-03-03T12:25:34;8.10;99.90
26589;DHT22;14235;48.532;8.722;2023-03-03T12:31:01;8.30;99.90
26589;DHT22;14235;48.532;8.722;2023-03-03T12:43:51;8.60;99.90
26589;DHT22;14235;48.532;8.722;2023-03-03T12:51:30;8.80;99.90
26589;DHT22;14235;48.532;8.722;2023-03-03T13:02:25;9.50;99.90
26589;DHT22;14235;48.532;8.722;2023-03-03T13:05:20;9.60;99.90
26589;DHT22;14235;48.532;8.722;2023-03-03T13:23:03;9.90;99.90
26589;DHT22;14235;48.532;8.722;2023-03-03T13:28:05;10.10;99.90
26589;DHT22;14235;48.532;8.722;2023-03-03T13:30:34;11.30;99.90
26589;DHT22;14235;48.532;8.722;2023-03-03T14:25:26;12.10;98.90
26589;DHT22;14235;48.532;8.722;2023-03-03T14:28:00;12.40;90.90
26589;DHT22;14235;48.532;8.722;2023-03-03T14:30:27;13.10;86.00
26589;DHT22;14235;48.532;8.722;2023-03-03T14:35:42;13.20;83.70
26589;DHT22;14235;48.532;8.722;2023-03-03T14:40:39;12.80;80.80
26589;DHT22;14235;48.532;8.722;2023-03-03T14:43:37;12.80;80.10
26589;DHT22;14235;48.532;8.722;2023-03-03T14:46:31;12.80;81.30
26589;DHT22;14235;48.532;8.722;2023-03-03T14:49:03;12.80;83.80
26589;DHT22;14235;48.532;8.722;2023-03-03T14:53:58;13.70;85.70
26589;DHT22;14235;48.532;8.722;2023-03-03T14:58:52;12.70;84.60
26589;DHT22;14235;48.532;8.722;2023-03-03T15:01:34;13.00;84.70
26589;DHT22;14235;48.532;8.722;2023-03-03T15:04:22;12.70;84.70
26589;DHT22;14235;48.532;8.722;2023-03-03T15:06:50;12.20;84.30
26589;DHT22;14235;48.532;8.722;2023-03-03T15:09:32;12.30;84.10
26589;DHT22;14235;48.532;8.722;2023-03-03T15:12:24;11.90;83.70
26589;DHT22;14235;48.532;8.722;2023-03-03T15:20:37;11.60;84.10
26589;DHT22;14235;48.532;8.722;2023-03-03T15:31:39;11.00;85.00
26589;DHT22;14235;48.532;8.722;2023-03-03T15:34:30;11.90;85.40
26589;DHT22;14235;48.532;8.722;2023-03-03T15:42:32;10.80;85.20
26589;DHT22;14235;48.532;8.722;2023-03-03T15:45:10;10.70;85.40
26589;DHT22;14235;48.532;8.722;2023-03-03T15:48:18;10.70;86.30
26589;DHT22;14235;48.532;8.722;2023-03-03T15:50:59;10.50;87.70
26589;DHT22;14235;48.532;8.722;2023-03-03T15:53:32;10.70;90.90
26589;DHT22;14235;48.532;8.722;2023-03-03T15:56:14;10.40;92.20
26589;DHT22;14235;48.532;8.722;2023-03-03T15:58:55;10.20;93.20
26589;DHT22;14235;48.532;8.722;2023-03-03T16:03:58;9.90;94.30
26589;DHT22;14235;48.532;8.722;2023-03-03T16:18:06;9.50;95.50
26589;DHT22;14235;48.532;8.722;2023-03-03T16:26:05;9.00;99.90
26589;DHT22;14235;48.532;8.722;2023-03-03T16:36:24;8.80;99.90
26589;DHT22;14235;48.532;8.722;2023-03-03T16:47:21;8.60;99.70
26589;DHT22;14235;48.532;8.722;2023-03-03T16:52:37;8.50;99.90
26589;DHT22;14235;48.532;8.722;2023-03-03T16:58:24;8.30;98.30
26589;DHT22;14235;48.532;8.722;2023-03-03T17:01:25;8.20;98.50
26589;DHT22;14235;48.532;8.722;2023-03-03T17:04:02;8.20;99.10
26589;DHT22;14235;48.532;8.722;2023-03-03T17:15:04;8.10;99.90
26589;DHT22;14235;48.532;8.722;2023-03-03T17:23:27;7.60;99.90
26589;DHT22;14235;48.532;8.722;2023-03-03T17:29:08;7.60;99.90
26589;DHT22;14235;48.532;8.722;2023-03-03T17:45:12;8.30;99.90
26589;DHT22;14235;48.532;8.722;2023-03-03T17:48:19;7.00;99.90
26589;DHT22;14235;48.532;8.722;2023-03-03T17:53:58;6.90;99.90
26589;DHT22;14235;48.532;8.722;2023-03-03T18:05:24;6.60;99.90
26589;DHT22;14235;48.532;8.722;2023-03-03T18:07:56;6.20;99.90
26589;DHT22;14235;48.532;8.722;2023-03-03T18:21:36;6.20;99.90
26589;DHT22;14235;48.532;8.722;2023-03-03T18:26:50;6.10;99.90
26589;DHT22;14235;48.532;8.722;2023-03-03T18:31:48;5.90;99.90
26589;DHT22;14235;48.532;8.722;2023-03-03T18:44:39;5.80;99.90
26589;DHT22;14235;48.532;8.722;2023-03-03T18:47:05;5.60;99.90
26589;DHT22;14235;48.532;8.722;2023-03-03T18:50:04;5.40;99.90
26589;DHT22;14235;48.532;8.722;2023-03-03T18:52:33;5.50;99.90
26589;DHT22;14235;48.532;8.722;2023-03-03T18:57:28;5.30;99.90
26589;DHT22;14235;48.532;8.722;2023-03-03T18:59:57;5.40;99.90
26589;DHT22;14235;48.532;8.722;2023-03-03T19:02:37;5.00;99.90
26589;DHT22;14235;48.532;8.722;2023-03-03T19:12:57;5.30;99.90
26589;DHT22;14235;48.532;8.722;2023-03-03T19:20:43;5.10;99.90
26589;DHT22;14235;48.532;8.722;2023-03-03T19:24:42;5.10;99.90
26589;DHT22;14235;48.532;8.722;2023-03-03T19:26:57;5.00;99.90
26589;DHT22;14235;48.532;8.722;2023-03-03T19:30:06;5.00;99.90
26589;DHT22;14235;48.532;8.722;2023-03-03T19:32:56;4.90;99.90
26589;DHT22;14235;48.532;8.722;2023-03-03T19:35:39;4.80;99.90
26589;DHT22;14235;48.532;8.722;2023-03-03T19:52:28;3.90;99.90
26589;DHT22;14235;48.532;8.722;2023-03-03T19:58:08;4.40;99.90
26589;DHT22;14235;48.532;8.722;2023-03-03T20:01:00;4.30;99.90
26589;DHT22;14235;48.532;8.722;2023-03-03T20:03:44;4.50;99.90
26589;DHT22;14235;48.532;8.722;2023-03-03T20:06:42;4.40;99.90
26589;DHT22;14235;48.532;8.722;2023-03-03T20:12:02;4.30;99.90
26589;DHT22;14235;48.532;8.722;2023-03-03T20:14:51;4.20;99.90
26589;DHT22;14235;48.532;8.722;2023-03-03T20:17:24;3.70;99.90
26589;DHT22;14235;48.532;8.722;2023-03-03T20:20:20;4.10;99.90
26589;DHT22;14235;48.532;8.722;2023-03-03T20:23:05;4.10;99.90
26589;DHT22;14235;48.532;8.722;2023-03-03T20:25:40;4.10;99.90
26589;DHT22;14235;48.532;8.722;2023-03-03T20:33:39;3.90;99.90
26589;DHT22;14235;48.532;8.722;2023-03-03T20:39:08;4.00;99.90
26589;DHT22;14235;48.532;8.722;2023-03-03T20:44:55;3.90;99.90
26589;DHT22;14235;48.532;8.722;2023-03-03T20:47:40;3.80;99.90
26589;DHT22;14235;48.532;8.722;2023-03-03T20:55:52;3.70;99.90
26589;DHT22;14235;48.532;8.722;2023-03-03T21:01:13;3.70;99.90
26589;DHT22;14235;48.532;8.722;2023-03-03T21:03:42;3.60;99.90
26589;DHT22;14235;48.532;8.722;2023-03-03T21:06:16;3.80;99.90
26589;DHT22;14235;48.532;8.722;2023-03-03T21:08:56;3.50;99.90
26589;DHT22;14235;48.532;8.722;2023-03-03T21:11:43;3.50;99.90
26589;DHT22;14235;48.532;8.722;2023-03-03T21:14:18;3.40;99.90
26589;DHT22;14235;48.532;8.722;2023-03-03T21:16:44;3.40;99.90
26589;DHT22;14235;48.532;8.722;2023-03-03T21:21:42;3.10;99.90
26589;DHT22;14235;48.532;8.722;2023-03-03T21:24:10;3.40;99.90
26589;DHT22;14235;48.532;8.722;2023-03-03T21:26:44;3.30;99.90
26589;DHT22;14235;48.532;8.722;2023-03-03T21:34:25;3.20;99.90
26589;DHT22;14235;48.532;8.722;2023-03-03T21:36:51;3.20;99.90
26589;DHT22;14235;48.532;8.722;2023-03-03T21:39:30;3.20;99.90
26589;DHT22;14235;48.532;8.722;2023-03-03T21:47:07;3.00;99.90
26589;DHT22;14235;48.532;8.722;2023-03-03T21:49:33;3.00;99.90
26589;DHT22;14235;48.532;8.722;2023-03-03T21:54:25;3.00;99.90
26589;DHT22;14235;48.532;8.722;2023-03-03T21:59:18;3.00;99.90
26589;DHT22;14235;48.532;8.722;2023-03-03T22:01:44;3.00;99.90
26589;DHT22;14235;48.532;8.722;2023-03-03T22:04:10;3.00;99.90
26589;DHT22;14235;48.532;8.722;2023-03-03T22:06:36;2.90;99.90
26589;DHT22;14235;48.532;8.722;2023-03-03T22:11:28;3.00;99.90
26589;DHT22;14235;48.532;8.722;2023-03-03T22:13:53;2.70;99.90
26589;DHT22;14235;48.532;8.722;2023-03-03T22:16:19;2.80;99.90
26589;DHT22;14235;48.532;8.722;2023-03-03T22:18:44;2.70;99.90
26589;DHT22;14235;48.532;8.722;2023-03-03T22:21:10;2.70;99.90
26589;DHT22;14235;48.532;8.722;2023-03-03T22:23:35;2.70;99.90
26589;DHT22;14235;48.532;8.722;2023-03-03T22:26:01;2.60;99.90
26589;DHT22;14235;48.532;8.722;2023-03-03T22:28:27;2.70;99.90
26589;DHT22;14235;48.532;8.722;2023-03-03T22:30:54;2.40;99.90
26589;DHT22;14235;48.532;8.722;2023-03-03T22:33:19;2.60;99.90
26589;DHT22;14235;48.532;8.722;2023-03-03T22:35:47;2.70;99.90
26589;DHT22;14235;48.532;8.722;2023-03-03T22:38:14;2.60;99.90
26589;DHT22;14235;48.532;8.722;2023-03-03T22:40:40;2.60;99.90
26589;DHT22;14235;48.532;8.722;2023-03-03T22:43:06;2.50;99.90
26589;DHT22;14235;48.532;8.722;2023-03-03T22:45:32;2.50;99.90
26589;DHT22;14235;48.532;8.722;2023-03-03T22:47:57;2.50;99.90
26589;DHT22;14235;48.532;8.722;2023-03-03T22:50:23;2.10;99.90
26589;DHT22;14235;48.532;8.722;2023-03-03T22:52:49;2.30;99.90
26589;DHT22;14235;48.532;8.722;2023-03-03T22:55:14;2.40;99.90
26589;DHT22;14235;48.532;8.722;2023-03-03T22:57:40;2.50;99.90
26589;DHT22;14235;48.532;8.722;2023-03-03T23:00:07;2.30;99.90
26589;DHT22;14235;48.532;8.722;2023-03-03T23:02:33;2.40;99.90
26589;DHT22;14235;48.532;8.722;2023-03-03T23:04:59;2.40;99.90
26589;DHT22;14235;48.532;8.722;2023-03-03T23:07:29;2.20;99.90
26589;DHT22;14235;48.532;8.722;2023-03-03T23:09:55;2.30;99.90
26589;DHT22;14235;48.532;8.722;2023-03-03T23:12:21;2.50;99.90
26589;DHT22;14235;48.532;8.722;2023-03-03T23:14:46;2.10;99.90
26589;DHT22;14235;48.532;8.722;2023-03-03T23:17:12;2.10;99.90
26589;DHT22;14235;48.532;8.722;2023-03-03T23:19:39;2.20;99.90
26589;DHT22;14235;48.532;8.722;2023-03-03T23:22:05;2.10;99.90
26589;DHT22;14235;48.532;8.722;2023-03-03T23:24:31;2.10;99.90
26589;DHT22;14235;48.532;8.722;2023-03-03T23:26:57;2.10;99.90
26589;DHT22;14235;48.532;8.722;2023-03-03T23:29:23;2.10;99.90
26589;DHT22;14235;48.532;8.722;2023-03-03T23:31:49;2.20;99.90
26589;DHT22;14235;48.532;8.722;2023-03-03T23:34:14;2.00;99.90
26589;DHT22;14235;48.532;8.722;2023-03-03T23:36:40;2.00;99.90
26589;DHT22;14235;48.532;8.722;2023-03-03T23:39:05;2.00;99.90
26589;DHT22;14235;48.532;8.722;2023-03-03T23:43:57;2.10;99.90
26589;DHT22;14235;48.532;8.722;2023-03-03T23:46:23;1.90;99.90
26589;DHT22;14235;48.532;8.722;2023-03-03T23:51:14;3.00;99.90
26589;DHT22;14235;48.532;8.722;2023-03-03T23:53:40;1.90;99.90
26589;DHT22;14235;48.532;8.722;2023-03-03T23:56:05;1.90;99.90
26589;DHT22;14235;48.532;8.722;2023-03-03T23:58:31;1.90;99.90
